createdAt,value
2023-01-13T10:27:31.778Z,733.00
2023-01-13T10:28:33.616Z,741.00
2023-01-13T10:29:35.418Z,747.00
2023-01-13T10:30:36.176Z,747.00
2023-01-13T10:31:38.031Z,748.00
2023-01-13T10:32:39.886Z,749.00
2023-01-13T10:33:41.697Z,753.00
2023-01-13T10:34:43.513Z,752.00
2023-01-13T10:35:45.308Z,754.00
2023-01-13T10:36:46.057Z,756.00
2023-01-13T10:37:47.875Z,757.00
2023-01-13T10:38:49.671Z,758.00
2023-01-13T10:39:51.462Z,760.00
2023-01-13T10:40:53.267Z,761.00
2023-01-13T10:41:55.066Z,763.00
2023-01-13T10:42:56.911Z,759.00
2023-01-13T10:43:57.660Z,754.00
2023-01-13T10:44:59.457Z,750.00
2023-01-13T10:46:01.278Z,748.00
2023-01-13T10:47:03.074Z,745.00
2023-01-13T10:48:04.876Z,746.00
2023-01-13T10:49:06.682Z,743.00
2023-01-13T10:50:09.661Z,746.00
2023-01-13T10:51:08.495Z,747.00
2023-01-13T10:52:10.339Z,744.00
2023-01-13T10:53:12.195Z,746.00
2023-01-13T10:54:13.988Z,762.00
2023-01-13T10:55:15.806Z,758.00
2023-01-13T10:56:17.607Z,755.00
2023-01-13T10:57:19.414Z,757.00
2023-01-13T10:58:21.243Z,756.00
2023-01-13T10:59:23.052Z,755.00
2023-01-13T11:00:23.799Z,753.00
2023-01-13T11:01:24.686Z,749.00
2023-01-13T11:02:26.716Z,747.00
2023-01-13T11:03:26.743Z,801.00
2023-01-13T11:04:28.607Z,758.00
2023-01-13T11:05:30.388Z,753.00
2023-01-13T11:06:32.190Z,752.00
2023-01-13T11:07:33.999Z,750.00
2023-01-13T11:08:35.819Z,747.00
2023-01-13T11:09:37.619Z,745.00
2023-01-13T11:10:39.421Z,740.00
2023-01-13T11:11:40.178Z,739.00
2023-01-13T11:12:40.933Z,739.00
2023-01-13T11:13:41.298Z,736.00
2023-01-13T11:14:43.006Z,737.00
2023-01-13T11:15:44.883Z,734.00
2023-01-13T11:16:52.994Z,735.00
2023-01-13T11:17:46.926Z,728.00
2023-01-13T11:18:48.736Z,724.00
2023-01-13T11:19:50.536Z,723.00
2023-01-13T11:20:52.343Z,722.00
2023-01-13T11:21:54.136Z,721.00
2023-01-13T11:22:55.947Z,719.00
2023-01-13T11:23:57.758Z,718.00
2023-01-13T11:24:59.595Z,719.00
2023-01-13T11:26:01.387Z,718.00
2023-01-13T11:27:03.229Z,716.00
2023-01-13T11:28:05.023Z,716.00
2023-01-13T11:29:05.824Z,722.00
2023-01-13T11:30:06.584Z,715.00
2023-01-13T11:31:06.813Z,713.00
2023-01-13T11:32:08.461Z,710.00
2023-01-13T11:33:10.257Z,712.00
2023-01-13T11:34:12.102Z,714.00
2023-01-13T11:35:13.914Z,718.00
2023-01-13T11:36:15.713Z,718.00
2023-01-13T11:37:17.515Z,715.00
2023-01-13T11:38:19.304Z,720.00
2023-01-13T11:39:20.052Z,715.00
2023-01-13T11:40:20.811Z,712.00
2023-01-13T11:41:21.117Z,715.00
2023-01-13T11:42:22.826Z,716.00
2023-01-13T11:43:24.628Z,720.00
2023-01-13T11:44:26.471Z,723.00
2023-01-13T11:45:28.283Z,728.00
2023-01-13T11:46:30.139Z,732.00
2023-01-13T11:47:31.969Z,733.00
2023-01-13T11:48:33.772Z,736.00
2023-01-13T11:49:35.580Z,737.00
2023-01-13T11:50:37.388Z,741.00
2023-01-13T11:51:38.144Z,741.00
2023-01-13T11:52:39.948Z,739.00
2023-01-13T11:53:41.755Z,742.00
2023-01-13T11:54:43.583Z,744.00
2023-01-13T11:55:45.390Z,744.00
2023-01-13T11:56:47.202Z,744.00
2023-01-13T11:57:49.000Z,745.00
2023-01-13T11:58:51.515Z,746.00
2023-01-13T11:59:52.392Z,742.00
2023-01-13T12:00:54.227Z,742.00
2023-01-13T12:01:55.030Z,745.00
2023-01-13T12:02:55.812Z,747.00
2023-01-13T12:03:56.081Z,752.00
2023-01-13T12:04:57.823Z,758.00
2023-01-13T12:05:59.638Z,757.00
2023-01-13T12:07:01.443Z,756.00
2023-01-13T12:08:03.243Z,757.00
2023-01-13T12:09:05.055Z,755.00
2023-01-13T12:10:11.617Z,840.00
2023-01-13T12:11:07.576Z,675.00
2023-01-13T12:12:08.341Z,650.00
2023-01-13T12:13:08.699Z,636.00
2023-01-13T12:14:10.511Z,643.00
2023-01-13T12:15:12.364Z,757.00
2023-01-13T12:16:14.237Z,687.00
2023-01-13T12:17:16.058Z,681.00
2023-01-13T12:18:17.908Z,684.00
2023-01-13T12:19:19.716Z,683.00
2023-01-13T12:20:20.480Z,690.00
2023-01-13T12:21:21.252Z,701.00
2023-01-13T12:22:21.629Z,706.00
2023-01-13T12:23:23.390Z,708.00
2023-01-13T12:24:25.194Z,718.00
2023-01-13T12:25:27.015Z,718.00
2023-01-13T12:26:28.804Z,720.00
2023-01-13T12:27:29.562Z,720.00
2023-01-13T12:28:30.352Z,720.00
2023-01-13T12:29:30.580Z,722.00
2023-01-13T12:30:32.394Z,730.00
2023-01-13T12:31:34.224Z,733.00
2023-01-13T12:32:36.043Z,735.00
2023-01-13T12:33:37.836Z,735.00
2023-01-13T12:34:39.638Z,735.00
2023-01-13T12:35:41.463Z,742.00
2023-01-13T12:36:44.965Z,739.00
2023-01-13T12:37:43.617Z,734.00
2023-01-13T12:38:45.418Z,739.00
2023-01-13T12:39:47.226Z,746.00
2023-01-13T12:40:49.033Z,747.00
2023-01-13T12:41:50.833Z,748.00
2023-01-13T12:42:52.631Z,747.00
2023-01-13T12:43:54.432Z,749.00
2023-01-13T12:44:55.180Z,753.00
2023-01-13T12:45:57.016Z,760.00
2023-01-13T12:46:58.809Z,762.00
2023-01-13T12:48:00.621Z,758.00
2023-01-13T12:49:02.471Z,758.00
2023-01-13T12:50:04.272Z,760.00
2023-01-13T12:51:06.088Z,762.00
2023-01-13T12:52:07.894Z,764.00
2023-01-13T12:53:09.728Z,764.00
2023-01-13T12:54:11.524Z,764.00
2023-01-13T12:55:12.271Z,769.00
2023-01-13T12:56:13.044Z,772.00
2023-01-13T12:57:13.382Z,772.00
2023-01-13T12:58:15.186Z,772.00
2023-01-13T12:59:17.059Z,769.00
2023-01-13T13:00:18.878Z,766.00
2023-01-13T13:01:20.937Z,765.00
2023-01-13T13:02:22.831Z,768.00
2023-01-13T13:03:24.654Z,867.00
2023-01-13T13:04:26.465Z,759.00
2023-01-13T13:05:28.273Z,755.00
2023-01-13T13:06:29.035Z,757.00
2023-01-13T13:07:29.997Z,752.00
2023-01-13T13:08:30.065Z,749.00
2023-01-13T13:09:31.786Z,751.00
2023-01-13T13:10:33.585Z,750.00
2023-01-13T13:11:35.395Z,752.00
2023-01-13T13:12:37.202Z,749.00
2023-01-13T13:13:39.011Z,744.00
2023-01-13T13:14:39.855Z,748.00
2023-01-13T13:15:40.657Z,746.00
2023-01-13T13:16:40.956Z,743.00
2023-01-13T13:17:42.622Z,745.00
2023-01-13T13:18:44.344Z,754.00
2023-01-13T13:19:46.158Z,749.00
2023-01-13T13:20:47.966Z,756.00
2023-01-13T13:21:48.721Z,759.00
2023-01-13T13:22:49.470Z,748.00
2023-01-13T13:23:49.824Z,665.00
2023-01-13T13:24:51.591Z,687.00
2023-01-13T13:25:53.398Z,792.00
2023-01-13T13:26:55.215Z,765.00
2023-01-13T13:27:57.033Z,754.00
2023-01-13T13:28:57.776Z,748.00
2023-01-13T13:29:59.570Z,760.00
2023-01-13T13:31:01.411Z,759.00
2023-01-13T13:32:03.821Z,753.00
2023-01-13T13:33:04.579Z,750.00
2023-01-13T13:34:06.389Z,748.00
2023-01-13T13:35:07.147Z,749.00
2023-01-13T13:36:07.900Z,749.00
2023-01-13T13:37:08.448Z,750.00
2023-01-13T13:38:10.016Z,755.00
2023-01-13T13:39:11.826Z,758.00
2023-01-13T13:40:13.571Z,756.00
2023-01-13T13:41:15.378Z,760.00
2023-01-13T13:42:16.140Z,761.00
2023-01-13T13:43:16.911Z,763.00
2023-01-13T13:44:17.263Z,763.00
2023-01-13T13:45:19.041Z,753.00
2023-01-13T13:46:20.885Z,753.00
2023-01-13T13:47:22.901Z,755.00
2023-01-13T13:48:24.701Z,757.00
2023-01-13T13:49:24.826Z,761.00
2023-01-13T13:50:26.570Z,763.00
2023-01-13T13:51:28.386Z,764.00
2023-01-13T13:52:30.319Z,762.00
2023-01-13T13:53:32.180Z,757.00
2023-01-13T13:54:33.986Z,755.00
2023-01-13T13:55:35.785Z,751.00
2023-01-13T13:56:37.587Z,753.00
2023-01-13T13:57:39.818Z,753.00
2023-01-13T13:58:39.793Z,752.00
2023-01-13T13:59:41.595Z,752.00
2023-01-13T14:00:43.387Z,752.00
2023-01-13T14:01:45.323Z,747.00
2023-01-13T14:02:47.209Z,747.00
2023-01-13T14:03:49.018Z,748.00
2023-01-13T14:04:50.856Z,755.00
2023-01-13T14:05:52.685Z,758.00
2023-01-13T14:06:54.501Z,757.00
2023-01-13T14:08:00.994Z,759.00
2023-01-13T14:08:56.459Z,756.00
2023-01-13T14:09:58.252Z,758.00
2023-01-13T14:11:00.084Z,757.00
2023-01-13T14:12:01.878Z,759.00
2023-01-13T14:13:02.630Z,759.00
2023-01-13T14:14:04.433Z,763.00
2023-01-13T14:15:06.222Z,772.00
2023-01-13T14:16:08.058Z,771.00
2023-01-13T14:17:09.883Z,771.00
2023-01-13T14:18:11.732Z,769.00
2023-01-13T14:19:13.519Z,768.00
2023-01-13T14:20:15.318Z,767.00
2023-01-13T14:21:17.122Z,765.00
2023-01-13T14:22:18.931Z,761.00
2023-01-13T14:23:20.730Z,758.00
2023-01-13T14:24:22.560Z,756.00
2023-01-13T14:25:24.359Z,751.00
2023-01-13T14:26:26.154Z,746.00
2023-01-13T14:27:26.837Z,743.00
2023-01-13T14:28:27.615Z,742.00
2023-01-13T14:29:27.916Z,743.00
2023-01-13T14:30:29.619Z,743.00
2023-01-13T14:31:31.418Z,743.00
2023-01-13T14:32:33.231Z,740.00
2023-01-13T14:33:35.093Z,735.00
2023-01-13T14:34:36.892Z,731.00
2023-01-13T14:35:38.680Z,729.00
2023-01-13T14:36:40.483Z,730.00
2023-01-13T14:37:42.301Z,729.00
2023-01-13T14:38:44.108Z,728.00
2023-01-13T14:39:45.915Z,727.00
2023-01-13T14:40:46.664Z,725.00
2023-01-13T14:41:47.408Z,725.00
2023-01-13T14:42:47.758Z,728.00
2023-01-13T14:43:49.499Z,730.00
2023-01-13T14:44:51.328Z,730.00
2023-01-13T14:45:53.147Z,727.00
2023-01-13T14:46:53.574Z,722.00
2023-01-13T14:47:55.372Z,721.00
2023-01-13T14:48:55.404Z,720.00
2023-01-13T14:49:56.533Z,722.00
2023-01-13T14:50:58.328Z,719.00
2023-01-13T14:52:00.144Z,717.00
2023-01-13T14:53:00.893Z,719.00
2023-01-13T14:54:01.666Z,722.00
2023-01-13T14:55:02.042Z,721.00
2023-01-13T14:56:03.796Z,719.00
2023-01-13T14:57:05.604Z,719.00
2023-01-13T14:58:07.410Z,718.00
2023-01-13T14:59:09.240Z,715.00
2023-01-13T15:00:09.983Z,715.00
2023-01-13T15:01:11.799Z,719.00
2023-01-13T15:02:13.649Z,723.00
2023-01-13T15:03:15.463Z,726.00
2023-01-13T15:04:17.334Z,726.00
2023-01-13T15:05:19.242Z,725.00
2023-01-13T15:06:21.062Z,722.00
2023-01-13T15:07:22.876Z,720.00
2023-01-13T15:08:24.669Z,719.00
2023-01-13T15:09:26.481Z,718.00
2023-01-13T15:10:28.286Z,717.00
2023-01-13T15:11:29.050Z,720.00
2023-01-13T15:12:29.815Z,724.00
2023-01-13T15:13:30.156Z,729.00
2023-01-13T15:14:31.935Z,731.00
2023-01-13T15:15:33.736Z,729.00
2023-01-13T15:16:35.614Z,728.00
2023-01-13T15:17:37.483Z,731.00
2023-01-13T15:18:39.291Z,733.00
2023-01-13T15:19:41.126Z,737.00
2023-01-13T15:20:42.919Z,741.00
2023-01-13T15:21:43.668Z,747.00
2023-01-13T15:22:44.424Z,752.00
2023-01-13T15:23:44.729Z,750.00
2023-01-13T15:24:46.489Z,744.00
2023-01-13T15:25:48.303Z,745.00
2023-01-13T15:26:50.106Z,746.00
2023-01-13T15:27:52.109Z,743.00
2023-01-13T15:28:54.904Z,743.00
2023-01-13T15:29:55.665Z,747.00
2023-01-13T15:30:57.479Z,747.00
2023-01-13T15:31:59.274Z,751.00
2023-01-13T15:33:00.038Z,750.00
2023-01-13T15:34:00.827Z,752.00
2023-01-13T15:35:01.075Z,753.00
2023-01-13T15:36:02.787Z,756.00
2023-01-13T15:37:04.608Z,756.00
2023-01-13T15:38:06.404Z,755.00
2023-01-13T15:39:08.206Z,756.00
2023-01-13T15:40:10.019Z,766.00
2023-01-13T15:41:10.833Z,770.00
2023-01-13T15:42:11.583Z,768.00
2023-01-13T15:43:11.936Z,781.00
2023-01-13T15:44:13.687Z,769.00
2023-01-13T15:45:15.504Z,767.00
2023-01-13T15:46:17.401Z,766.00
2023-01-13T15:47:19.219Z,767.00
2023-01-13T15:48:21.023Z,765.00
2023-01-13T15:49:21.769Z,760.00
2023-01-13T15:50:23.607Z,757.00
2023-01-13T15:51:25.400Z,753.00
2023-01-13T15:52:27.198Z,755.00
2023-01-13T15:53:28.995Z,754.00
2023-01-13T15:54:30.811Z,755.00
2023-01-13T15:55:32.663Z,753.00
2023-01-13T15:56:34.479Z,750.00
2023-01-13T15:57:36.265Z,748.00
2023-01-13T15:58:38.052Z,746.00
2023-01-13T15:59:38.792Z,745.00
2023-01-13T16:00:40.731Z,749.00
2023-01-13T16:01:41.629Z,752.00
2023-01-13T16:02:41.980Z,755.00
2023-01-13T16:03:43.644Z,759.00
2023-01-13T16:04:45.448Z,753.00
2023-01-13T16:05:47.274Z,748.00
2023-01-13T16:06:49.089Z,747.00
2023-01-13T16:07:49.839Z,748.00
2023-01-13T16:08:51.641Z,746.00
2023-01-13T16:09:53.441Z,742.00
2023-01-13T16:10:55.248Z,740.00
2023-01-13T16:11:57.046Z,735.00
2023-01-13T16:12:58.849Z,734.00
2023-01-13T16:14:00.659Z,737.00
2023-01-13T16:15:02.473Z,739.00
2023-01-13T16:16:03.255Z,740.00
2023-01-13T16:17:05.078Z,741.00
2023-01-13T16:18:06.869Z,740.00
2023-01-13T16:19:08.664Z,736.00
2023-01-13T16:20:10.467Z,736.00
2023-01-13T16:21:12.322Z,737.00
2023-01-13T16:22:14.464Z,736.00
2023-01-13T16:23:14.273Z,736.00
2023-01-13T16:24:15.909Z,733.00
2023-01-13T16:25:17.712Z,731.00
2023-01-13T16:26:19.554Z,730.00
2023-01-13T16:27:21.364Z,730.00
2023-01-13T16:28:22.118Z,731.00
2023-01-13T16:29:23.920Z,734.00
2023-01-13T16:30:25.713Z,732.00
2023-01-13T16:31:27.577Z,728.00
2023-01-13T16:32:29.399Z,727.00
2023-01-13T16:33:31.028Z,725.00
2023-01-13T16:34:32.831Z,720.00
2023-01-13T16:35:33.563Z,717.00
2023-01-13T16:36:35.420Z,717.00
2023-01-13T16:37:37.239Z,719.00
2023-01-13T16:38:39.037Z,737.00
2023-01-13T16:39:41.105Z,745.00
2023-01-13T16:40:42.899Z,739.00
2023-01-13T16:41:44.699Z,728.00
2023-01-13T16:42:46.503Z,723.00
2023-01-13T16:43:47.238Z,724.00
2023-01-13T16:44:49.040Z,728.00
2023-01-13T16:45:50.941Z,724.00
2023-01-13T16:46:52.776Z,700.00
2023-01-13T16:47:54.573Z,669.00
2023-01-13T16:48:56.370Z,647.00
2023-01-13T16:49:58.172Z,639.00
2023-01-13T16:50:59.969Z,648.00
2023-01-13T16:52:00.769Z,652.00
2023-01-13T16:53:01.558Z,656.00
2023-01-13T16:54:01.874Z,664.00
2023-01-13T16:55:03.647Z,677.00
2023-01-13T16:56:05.449Z,691.00
2023-01-13T16:57:07.256Z,710.00
2023-01-13T16:58:09.057Z,734.00
2023-01-13T16:59:09.805Z,745.00
2023-01-13T17:00:11.600Z,751.00
2023-01-13T17:01:13.480Z,763.00
2023-01-13T17:02:15.336Z,759.00
2023-01-13T17:03:17.223Z,775.00
2023-01-13T17:04:19.112Z,782.00
2023-01-13T17:05:21.006Z,786.00
2023-01-13T17:06:22.823Z,786.00
2023-01-13T17:07:24.667Z,785.00
2023-01-13T17:08:26.462Z,787.00
2023-01-13T17:09:28.259Z,789.00
2023-01-13T17:10:30.051Z,791.00
2023-01-13T17:11:30.806Z,804.00
2023-01-13T17:12:31.576Z,817.00
2023-01-13T17:13:31.913Z,830.00
2023-01-13T17:14:33.682Z,850.00
2023-01-13T17:15:35.471Z,844.00
2023-01-13T17:16:35.756Z,836.00
2023-01-13T17:17:37.296Z,833.00
2023-01-13T17:18:39.097Z,837.00
2023-01-13T17:19:41.092Z,874.00
2023-01-13T17:20:42.890Z,883.00
2023-01-13T17:21:44.689Z,878.00
2023-01-13T17:22:49.713Z,878.00
2023-01-13T17:23:47.131Z,877.00
2023-01-13T17:24:49.001Z,872.00
2023-01-13T17:25:50.806Z,867.00
2023-01-13T17:26:52.608Z,865.00
2023-01-13T17:27:54.416Z,867.00
2023-01-13T17:28:56.216Z,861.00
2023-01-13T17:29:58.003Z,864.00
2023-01-13T17:30:59.803Z,867.00
2023-01-13T17:32:00.585Z,867.00
2023-01-13T17:33:01.355Z,871.00
2023-01-13T17:34:01.704Z,874.00
2023-01-13T17:35:03.501Z,872.00
2023-01-13T17:36:05.301Z,871.00
2023-01-13T17:37:07.098Z,872.00
2023-01-13T17:38:08.965Z,881.00
2023-01-13T17:39:10.753Z,903.00
2023-01-13T17:40:11.497Z,931.00
2023-01-13T17:41:12.247Z,995.00
2023-01-13T17:42:12.577Z,990.00
2023-01-13T17:43:14.345Z,1003.00
2023-01-13T17:44:16.154Z,1041.00
2023-01-13T17:45:17.971Z,1054.00
2023-01-13T17:46:19.935Z,1063.00
2023-01-13T17:47:21.786Z,1098.00
2023-01-13T17:48:23.603Z,1121.00
2023-01-13T17:49:24.341Z,1115.00
2023-01-13T17:50:25.080Z,1105.00
2023-01-13T17:51:25.484Z,1098.00
2023-01-13T17:52:27.238Z,1099.00
2023-01-13T17:53:30.728Z,1105.00
2023-01-13T17:54:29.433Z,1110.00
2023-01-13T17:55:31.231Z,1109.00
2023-01-13T17:56:33.029Z,1044.00
2023-01-13T17:57:34.825Z,1058.00
2023-01-13T17:58:36.650Z,1066.00
2023-01-13T17:59:38.447Z,1065.00
2023-01-13T18:00:40.239Z,1064.00
2023-01-13T18:01:41.188Z,1056.00
2023-01-13T18:02:42.081Z,1051.00
2023-01-13T18:03:42.100Z,1054.00
2023-01-13T18:04:43.848Z,1055.00
2023-01-13T18:05:45.933Z,1055.00
2023-01-13T18:06:47.730Z,1052.00
2023-01-13T18:07:49.524Z,1048.00
2023-01-13T18:08:51.377Z,1041.00
2023-01-13T18:09:53.168Z,1030.00
2023-01-13T18:10:53.916Z,1018.00
2023-01-13T18:11:54.676Z,1016.00
2023-01-13T18:12:55.032Z,1014.00
2023-01-13T18:13:56.766Z,1007.00
2023-01-13T18:14:58.579Z,1005.00
2023-01-13T18:16:00.382Z,1002.00
2023-01-13T18:17:02.211Z,997.00
2023-01-13T18:18:04.015Z,993.00
2023-01-13T18:19:04.855Z,988.00
2023-01-13T18:20:05.605Z,983.00
2023-01-13T18:21:05.935Z,977.00
2023-01-13T18:22:07.665Z,972.00
2023-01-13T18:23:09.459Z,963.00
2023-01-13T18:24:11.417Z,953.00
2023-01-13T18:25:13.218Z,945.00
2023-01-13T18:26:15.017Z,940.00
2023-01-13T18:27:15.737Z,935.00
2023-01-13T18:28:17.541Z,925.00
2023-01-13T18:29:19.383Z,921.00
2023-01-13T18:30:21.187Z,916.00
2023-01-13T18:31:22.997Z,914.00
2023-01-13T18:32:24.799Z,913.00
2023-01-13T18:33:26.596Z,912.00
2023-01-13T18:34:28.415Z,909.00
2023-01-13T18:35:30.216Z,898.00
2023-01-13T18:36:32.013Z,895.00
2023-01-13T18:37:32.759Z,893.00
2023-01-13T18:38:34.546Z,889.00
2023-01-13T18:39:36.397Z,884.00
2023-01-13T18:40:38.200Z,882.00
2023-01-13T18:41:39.986Z,878.00
2023-01-13T18:42:41.783Z,873.00
2023-01-13T18:43:43.585Z,868.00
2023-01-13T18:44:45.401Z,869.00
2023-01-13T18:45:47.253Z,868.00
2023-01-13T18:46:49.077Z,864.00
2023-01-13T18:47:49.818Z,858.00
2023-01-13T18:48:50.586Z,853.00
2023-01-13T18:49:50.770Z,850.00
2023-01-13T18:50:52.619Z,843.00
2023-01-13T18:51:54.423Z,838.00
2023-01-13T18:52:56.218Z,835.00
2023-01-13T18:53:58.011Z,831.00
2023-01-13T18:54:58.794Z,828.00
2023-01-13T18:56:00.585Z,824.00
2023-01-13T18:57:02.383Z,822.00
2023-01-13T18:58:04.184Z,819.00
2023-01-13T18:59:05.982Z,815.00
2023-01-13T19:00:07.784Z,813.00
2023-01-13T19:01:09.692Z,811.00
2023-01-13T19:02:11.680Z,809.00
2023-01-13T19:03:13.484Z,805.00
2023-01-13T19:04:15.292Z,805.00
2023-01-13T19:05:17.100Z,804.00
2023-01-13T19:06:17.835Z,800.00
2023-01-13T19:07:18.592Z,797.00
2023-01-13T19:08:18.902Z,795.00
2023-01-13T19:09:20.596Z,792.00
2023-01-13T19:10:22.449Z,786.00
2023-01-13T19:11:24.240Z,783.00
2023-01-13T19:12:26.066Z,778.00
2023-01-13T19:13:27.914Z,775.00
2023-01-13T19:14:29.704Z,776.00
2023-01-13T19:15:30.537Z,774.00
2023-01-13T19:16:31.414Z,771.00
2023-01-13T19:17:31.611Z,768.00
2023-01-13T19:18:33.368Z,764.00
2023-01-13T19:19:35.164Z,764.00
2023-01-13T19:20:36.986Z,765.00
2023-01-13T19:21:37.731Z,765.00
2023-01-13T19:22:39.529Z,765.00
2023-01-13T19:23:41.323Z,761.00
2023-01-13T19:24:43.120Z,757.00
2023-01-13T19:25:45.055Z,755.00
2023-01-13T19:26:46.859Z,753.00
2023-01-13T19:27:48.753Z,752.00
2023-01-13T19:28:50.628Z,747.00
2023-01-13T19:29:52.982Z,748.00
2023-01-13T19:30:52.752Z,746.00
2023-01-13T19:31:54.430Z,741.00
2023-01-13T19:32:56.257Z,738.00
2023-01-13T19:33:58.052Z,735.00
2023-01-13T19:34:59.935Z,737.00
2023-01-13T19:36:00.708Z,736.00
2023-01-13T19:37:02.505Z,735.00
2023-01-13T19:38:04.311Z,733.00
2023-01-13T19:39:06.113Z,732.00
2023-01-13T19:40:07.916Z,730.00
2023-01-13T19:41:09.879Z,728.00
2023-01-13T19:42:11.742Z,723.00
2023-01-13T19:43:13.530Z,719.00
2023-01-13T19:44:14.839Z,718.00
2023-01-13T19:45:15.669Z,715.00
2023-01-13T19:46:17.620Z,713.00
2023-01-13T19:47:19.459Z,709.00
2023-01-13T19:48:21.245Z,706.00
2023-01-13T19:49:23.038Z,706.00
2023-01-13T19:50:24.848Z,706.00
2023-01-13T19:51:26.660Z,705.00
2023-01-13T19:52:27.394Z,704.00
2023-01-13T19:53:29.200Z,701.00
2023-01-13T19:54:30.996Z,699.00
2023-01-13T19:55:33.116Z,699.00
2023-01-13T19:56:34.982Z,696.00
2023-01-13T19:57:38.273Z,696.00
2023-01-13T19:58:36.915Z,693.00
2023-01-13T19:59:38.565Z,692.00
2023-01-13T20:00:40.361Z,689.00
2023-01-13T20:01:42.264Z,687.00
2023-01-13T20:02:43.076Z,686.00
2023-01-13T20:03:43.877Z,686.00
2023-01-13T20:04:44.174Z,687.00
2023-01-13T20:05:46.025Z,689.00
2023-01-13T20:06:47.849Z,690.00
2023-01-13T20:07:49.656Z,689.00
2023-01-13T20:08:50.401Z,689.00
2023-01-13T20:09:52.193Z,687.00
2023-01-13T20:10:53.994Z,685.00
2023-01-13T20:11:55.915Z,685.00
2023-01-13T20:12:57.723Z,684.00
2023-01-13T20:13:59.512Z,686.00
2023-01-13T20:15:01.323Z,691.00
2023-01-13T20:16:03.165Z,700.00
2023-01-13T20:17:05.051Z,704.00
2023-01-13T20:18:05.782Z,706.00
2023-01-13T20:19:07.575Z,709.00
2023-01-13T20:20:09.384Z,713.00
2023-01-13T20:21:11.184Z,715.00
2023-01-13T20:22:13.003Z,719.00
2023-01-13T20:23:14.801Z,721.00
2023-01-13T20:24:15.557Z,722.00
2023-01-13T20:25:17.444Z,719.00
2023-01-13T20:26:19.294Z,717.00
2023-01-13T20:27:21.138Z,715.00
2023-01-13T20:28:22.926Z,710.00
2023-01-13T20:29:24.726Z,705.00
2023-01-13T20:30:26.526Z,702.00
2023-01-13T20:31:28.334Z,699.00
2023-01-13T20:32:29.091Z,700.00
2023-01-13T20:33:30.907Z,699.00
2023-01-13T20:34:32.708Z,695.00
2023-01-13T20:35:34.522Z,692.00
2023-01-13T20:36:36.325Z,689.00
2023-01-13T20:37:38.150Z,688.00
2023-01-13T20:38:38.902Z,687.00
2023-01-13T20:39:40.694Z,685.00
2023-01-13T20:40:42.492Z,682.00
2023-01-13T20:41:44.288Z,679.00
2023-01-13T20:42:46.146Z,678.00
2023-01-13T20:43:47.953Z,678.00
2023-01-13T20:44:49.747Z,679.00
2023-01-13T20:45:50.486Z,676.00
2023-01-13T20:46:52.393Z,673.00
2023-01-13T20:47:54.226Z,673.00
2023-01-13T20:48:56.023Z,674.00
2023-01-13T20:49:57.815Z,671.00
2023-01-13T20:50:59.608Z,670.00
2023-01-13T20:52:01.402Z,668.00
2023-01-13T20:53:02.167Z,663.00
2023-01-13T20:54:03.950Z,661.00
2023-01-13T20:55:05.749Z,659.00
2023-01-13T20:56:07.546Z,657.00
2023-01-13T20:57:09.344Z,655.00
2023-01-13T20:58:11.284Z,656.00
2023-01-13T20:59:13.076Z,655.00
2023-01-13T21:00:14.867Z,651.00
2023-01-13T21:01:15.706Z,651.00
2023-01-13T21:02:16.558Z,648.00
2023-01-13T21:03:16.819Z,647.00
2023-01-13T21:04:18.578Z,643.00
2023-01-13T21:05:20.365Z,639.00
2023-01-13T21:06:22.177Z,639.00
2023-01-13T21:07:23.987Z,640.00
2023-01-13T21:08:24.753Z,642.00
2023-01-13T21:09:26.590Z,643.00
2023-01-13T21:10:28.403Z,644.00
2023-01-13T21:11:29.757Z,642.00
2023-01-13T21:12:31.558Z,641.00
2023-01-13T21:13:32.332Z,638.00
2023-01-13T21:14:34.134Z,638.00
2023-01-13T21:15:35.939Z,635.00
2023-01-13T21:16:37.754Z,636.00
2023-01-13T21:17:39.571Z,635.00
2023-01-13T21:18:41.378Z,638.00
2023-01-13T21:19:43.184Z,639.00
2023-01-13T21:20:43.931Z,637.00
2023-01-13T21:21:45.715Z,641.00
2023-01-13T21:22:47.519Z,639.00
2023-01-13T21:23:49.354Z,648.00
2023-01-13T21:24:51.147Z,653.00
2023-01-13T21:25:52.939Z,653.00
2023-01-13T21:26:54.719Z,649.00
2023-01-13T21:27:55.563Z,647.00
2023-01-13T21:28:57.396Z,647.00
2023-01-13T21:29:59.196Z,644.00
2023-01-13T21:31:01.024Z,644.00
2023-01-13T21:32:02.817Z,640.00
2023-01-13T21:33:04.612Z,640.00
2023-01-13T21:34:05.365Z,638.00
2023-01-13T21:35:06.111Z,638.00
2023-01-13T21:36:06.446Z,640.00
2023-01-13T21:37:08.226Z,641.00
2023-01-13T21:38:10.033Z,641.00
2023-01-13T21:39:11.851Z,640.00
2023-01-13T21:40:12.656Z,640.00
2023-01-13T21:41:13.405Z,640.00
2023-01-13T21:42:13.696Z,638.00
2023-01-13T21:43:15.441Z,638.00
2023-01-13T21:44:17.488Z,638.00
2023-01-13T21:45:19.277Z,637.00
2023-01-13T21:46:21.085Z,634.00
2023-01-13T21:47:22.890Z,634.00
2023-01-13T21:48:24.687Z,637.00
2023-01-13T21:49:26.504Z,636.00
2023-01-13T21:50:27.242Z,634.00
2023-01-13T21:51:29.046Z,635.00
2023-01-13T21:52:30.858Z,634.00
2023-01-13T21:53:32.667Z,633.00
2023-01-13T21:54:34.492Z,633.00
2023-01-13T21:55:36.288Z,630.00
2023-01-13T21:56:38.098Z,627.00
2023-01-13T21:57:39.887Z,626.00
2023-01-13T21:58:40.635Z,628.00
2023-01-13T21:59:42.448Z,627.00
2023-01-13T22:00:44.292Z,627.00
2023-01-13T22:02:21.829Z,628.00
2023-01-13T22:02:47.740Z,628.00
2023-01-13T22:03:49.613Z,627.00
2023-01-13T22:04:51.418Z,622.00
2023-01-13T22:05:53.220Z,622.00
2023-01-13T22:06:55.015Z,620.00
2023-01-13T22:07:55.407Z,618.00
2023-01-13T22:08:57.164Z,618.00
2023-01-13T22:09:58.979Z,617.00
2023-01-13T22:11:00.782Z,616.00
2023-01-13T22:12:02.581Z,616.00
2023-01-13T22:13:04.375Z,617.00
2023-01-13T22:14:05.109Z,615.00
2023-01-13T22:15:06.954Z,613.00
2023-01-13T22:16:08.780Z,612.00
2023-01-13T22:17:10.602Z,610.00
2023-01-13T22:18:12.396Z,606.00
2023-01-13T22:19:14.196Z,605.00
2023-01-13T22:20:16.007Z,602.00
2023-01-13T22:21:17.820Z,602.00
2023-01-13T22:22:19.625Z,602.00
2023-01-13T22:23:20.361Z,600.00
2023-01-13T22:24:22.155Z,596.00
2023-01-13T22:25:23.969Z,595.00
2023-01-13T22:26:25.761Z,593.00
2023-01-13T22:27:27.558Z,592.00
2023-01-13T22:28:29.357Z,589.00
2023-01-13T22:29:30.102Z,591.00
2023-01-13T22:30:31.940Z,590.00
2023-01-13T22:31:33.802Z,591.00
2023-01-13T22:32:35.646Z,596.00
2023-01-13T22:33:37.210Z,595.00
2023-01-13T22:34:39.062Z,592.00
2023-01-13T22:35:40.893Z,593.00
2023-01-13T22:36:41.635Z,592.00
2023-01-13T22:37:43.433Z,593.00
2023-01-13T22:38:45.227Z,594.00
2023-01-13T22:39:47.043Z,593.00
2023-01-13T22:41:32.413Z,595.00
2023-01-13T22:42:32.362Z,595.00
2023-01-13T22:43:34.140Z,594.00
2023-01-13T22:44:35.941Z,593.00
2023-01-13T22:45:37.809Z,594.00
2023-01-13T22:46:39.879Z,593.00
2023-01-13T22:47:41.682Z,589.00
2023-01-13T22:48:42.447Z,588.00
2023-01-13T22:49:44.240Z,587.00
2023-01-13T22:50:46.110Z,584.00
2023-01-13T22:51:47.918Z,581.00
2023-01-13T22:52:49.711Z,579.00
2023-01-13T22:53:51.517Z,582.00
2023-01-13T22:54:53.307Z,582.00
2023-01-13T22:55:54.063Z,579.00
2023-01-13T22:56:55.538Z,580.00
2023-01-13T22:57:57.331Z,577.00
2023-01-13T22:58:59.121Z,577.00
2023-01-13T22:59:59.901Z,578.00
2023-01-13T23:01:01.753Z,577.00
2023-01-13T23:02:03.610Z,576.00
2023-01-13T23:03:05.398Z,574.00
2023-01-13T23:04:07.367Z,576.00
2023-01-13T23:05:09.275Z,576.00
2023-01-13T23:06:11.076Z,576.00
2023-01-13T23:07:12.898Z,574.00
2023-01-13T23:08:13.634Z,573.00
2023-01-13T23:09:15.421Z,574.00
2023-01-13T23:10:17.221Z,571.00
2023-01-13T23:11:19.006Z,569.00
2023-01-13T23:12:20.804Z,570.00
2023-01-13T23:13:22.599Z,569.00
2023-01-13T23:14:24.389Z,568.00